Latest Weather Observations for Mount Gellibrand

IDV60801

Issued at 12:04 pm EDT Sunday 26 March 2017 (issued every 30 minutes, with the page automatically refreshed every 10 minutes)

About weather observations | Map of weather stations | Latest weather observations for VIC | Other Formats
Station Details ID: 090035 Name: MOUNT GELLIBRAND Lat: -38.23 Lon: 143.79 Height: 261.0 m
Data from the previous 72 hours. | See also: Recent months at Mount Gellibrand
Date/Time
EDT
Temp
°C
App
Temp
°C
Dew
Point
°C
Rel
Hum
%
Delta-T
°C
Wind Press
QNH
hPa
Press
MSL
hPa
Rain since
9am
mm
Dir  Spd
km/h
Gust
km/h
Spd
kts
Gust
kts
26/12:00pm 18.3 18.3 18.1 99 0.1 ENE 15 19 8 10 1015.7 1015.2 0.0
26/11:30am 17.8 17.3 17.8 100 0.0 ENE 17 22 9 12 1015.9 1015.3 0.0
26/11:00am 16.9 16.8 16.9 100 0.0 E 13 19 7 10 1016.0 1015.4 0.0
26/10:30am 16.5 16.2 16.5 100 0.0 E 13 15 7 8 1016.2 1015.6 0.0
26/10:00am 15.7 15.9 15.7 100 0.0 SE 9 15 5 8 1016.4 1015.8 0.0
26/09:30am 15.6 15.4 15.6 100 0.0 SE 11 13 6 7 1016.0 1015.4 0.0
26/09:00am 15.3 14.9 15.3 100 0.0 ESE 11 13 6 7 1015.6 1015.1 0.2
26/08:30am 15.4 15.1 15.4 100 0.0 E 11 13 6 7 1015.4 1014.8 0.2
26/08:00am 15.5 15.2 15.5 100 0.0 ESE 11 13 6 7 1015.2 1014.6 0.2
26/07:30am 15.4 15.5 15.4 100 0.0 E 9 13 5 7 1015.1 1014.5 0.2
26/07:00am 15.6 15.0 15.6 100 0.0 E 13 15 7 8 1014.8 1014.2 0.2
26/06:30am 15.1 15.4 15.1 100 0.0 ENE 7 11 4 6 1014.5 1013.9 0.0
26/06:00am 15.0 15.3 15.0 100 0.0 NE 7 7 4 4 1014.4 1013.8 0.0
26/05:30am 14.9 14.8 14.9 100 0.0 E 9 11 5 6 1014.3 1013.7 0.0
26/05:00am 15.2 15.2 15.2 100 0.0 E 9 11 5 6 1014.1 1013.5 0.0
26/04:30am 15.3 15.3 15.3 100 0.0 ESE 9 11 5 6 1014.2 1013.6 0.0
26/04:00am 15.4 15.8 15.4 100 0.0 SSW 7 9 4 5 1014.2 1013.6 0.0
26/03:30am 15.3 15.7 15.3 100 0.0 SSW 7 7 4 4 1014.5 1013.9 0.0
26/03:00am 15.1 15.4 14.9 99 0.1 SSW 7 9 4 5 1014.5 1013.9 0.0
26/02:30am 15.0 15.4 14.8 99 0.1 SSW 6 7 3 4 1014.8 1014.2 0.0
26/02:00am 15.4 15.8 15.2 99 0.1 SSW 7 9 4 5 1015.0 1014.4 0.0
26/01:30am 15.5 15.5 15.3 99 0.1 SW 9 15 5 8 1015.1 1014.5 0.0
26/01:00am 15.8 14.4 15.6 99 0.1 SW 17 19 9 10 1015.1 1014.5 0.0
26/12:30am 15.8 14.0 15.5 98 0.2 SW 19 22 10 12 1015.1 1014.5 0.0
26/12:00am 15.9 13.5 15.4 97 0.3 SW 22 26 12 14 1014.8 1014.2 0.0
 
Date/Time
EDT
Temp
°C
App
Temp
°C
Dew
Point
°C
Rel
Hum
%
Delta-T
°C
Wind Press
QNH
hPa
Press
MSL
hPa
Rain since
9am
mm
Dir  Spd
km/h
Gust
km/h
Spd
kts
Gust
kts
25/11:30pm 15.7 14.1 15.1 96 0.4 W 17 22 9 12 1014.9 1014.3 0.0
25/11:00pm 16.1 14.0 15.3 95 0.5 WSW 20 24 11 13 1014.8 1014.2 0.0
25/10:30pm 16.4 14.3 15.3 93 0.6 WSW 20 22 11 12 1014.7 1014.1 0.0
25/10:00pm 17.1 15.6 15.3 89 1.1 WSW 17 20 9 11 1014.5 1013.9 0.0
25/09:30pm 18.0 17.6 15.1 83 1.7 W 11 15 6 8 1014.2 1013.6 0.0
25/09:00pm 19.7 20.0 14.5 72 3.1 SSW 6 9 3 5 1014.0 1013.4 0.0
25/08:30pm 20.2 20.2 14.3 69 3.5 SSW 7 9 4 5 1013.6 1013.0 0.0
25/08:00pm 21.0 20.3 14.4 66 3.9 SW 11 15 6 8 1013.2 1012.6 0.0
25/07:30pm 22.2 20.0 14.3 61 4.7 WSW 19 22 10 12 1012.8 1012.2 0.0
25/07:00pm 23.6 21.5 14.6 57 5.4 SW 19 22 10 12 1012.3 1011.7 0.0
25/06:30pm 24.6 21.1 14.4 53 6.1 SW 26 30 14 16 1011.7 1011.1 0.0
25/06:00pm 26.1 22.1 14.2 48 7.2 SW 28 35 15 19 1011.4 1010.8 0.0
25/05:30pm 27.1 23.2 14.5 46 7.6 SW 28 37 15 20 1011.3 1010.7 0.0
25/05:00pm 27.5 24.5 14.8 45 7.8 SW 24 33 13 18 1010.9 1010.3 0.0
25/04:30pm 27.8 24.8 14.8 45 7.9 SW 24 30 13 16 1010.7 1010.1 0.0
25/04:00pm 27.8 25.0 14.4 43 8.1 WSW 22 33 12 18 1010.9 1010.3 0.0
25/03:30pm 28.4 25.1 13.9 41 8.8 WSW 24 37 13 20 1010.9 1010.3 0.0
25/03:00pm 27.8 25.2 14.8 45 8.0 W 22 33 12 18 1011.0 1010.4 0.0
25/02:30pm 27.0 24.7 14.7 47 7.5 W 20 35 11 19 1011.4 1010.8 0.0
25/02:00pm 28.3 25.8 14.2 42 8.6 WNW 20 33 11 18 1011.6 1011.0 0.0
25/01:30pm 27.7 24.5 14.3 43 8.1 WSW 24 35 13 19 1011.9 1011.2 0.0
25/01:00pm 27.9 23.9 14.2 43 8.3 W 28 37 15 20 1012.0 1011.3 0.0
25/12:30pm 26.5 21.5 13.3 44 7.8 WNW 32 44 17 24 1012.2 1011.5 0.0
25/12:00pm 26.7 22.9 14.8 48 7.2 NW 28 37 15 20 1012.6 1012.0 0.0
25/11:30am 25.5 23.7 16.1 56 5.8 NW 20 28 11 15 1012.9 1012.3 0.0
25/11:00am 21.9 19.6 15.7 68 3.8 NNW 22 28 12 15 1013.2 1012.6 0.0
25/10:30am 21.2 19.5 15.7 71 3.3 NNW 19 24 10 13 1013.1 1012.5 0.0
25/10:00am 20.3 18.8 15.3 73 3.0 NNW 17 20 9 11 1013.0 1012.4 0.0
25/09:30am 19.7 17.9 14.5 72 3.1 NNW 17 20 9 11 1013.0 1012.4 0.0
25/09:00am 19.6 18.0 14.0 70 3.3 NNW 15 19 8 10 1012.7 1012.1 0.2
25/08:30am 19.2 18.8 14.0 72 3.0 NNW 9 17 5 9 1012.7 1012.1 0.2
25/08:00am 18.9 18.9 13.7 72 3.0 NW 6 7 3 4 1012.5 1011.9 0.2
25/07:30am 18.5 17.5 13.4 72 2.9 NNW 11 15 6 8 1012.1 1011.4 0.2
25/07:00am 18.9 18.4 13.7 72 3.0 NW 9 15 5 8 1012.1 1011.4 0.2
25/06:30am 16.5 16.6 13.8 84 1.5 WNW 6 7 3 4 1012.1 1011.4 0.2
25/06:00am 19.0 18.8 13.6 71 3.1 NNW 7 11 4 6 1012.1 1011.4 0.2
25/05:30am 17.8 18.2 15.4 86 1.4 NNE 7 13 4 7 1012.0 1011.3 0.2
25/05:00am 16.4 16.3 14.9 91 0.9 NNE 9 13 5 7 1012.2 1011.5 0.2
25/04:30am 16.7 15.9 15.1 90 0.9 NNE 13 19 7 10 1012.0 1011.3 0.2
25/04:00am 16.5 15.8 15.4 93 0.6 NE 13 15 7 8 1012.1 1011.4 0.2
25/03:30am 16.4 15.8 15.6 95 0.5 NNE 13 17 7 9 1012.7 1012.1 0.2
25/03:00am 16.1 14.7 15.5 96 0.4 NE 17 20 9 11 1013.0 1012.4 0.0
25/02:30am 16.0 14.0 15.0 94 0.6 NE 19 20 10 11 1013.4 1012.8 0.0
25/02:00am 16.4 14.5 15.3 93 0.6 ENE 19 22 10 12 1013.8 1013.2 0.0
25/01:30am 16.3 14.1 15.0 92 0.8 ENE 20 24 11 13 1013.7 1013.1 0.0
25/01:00am 16.5 15.0 15.2 92 0.8 ENE 17 19 9 10 1014.9 1014.3 0.0
25/12:30am 16.3 15.5 15.0 92 0.8 E 13 15 7 8 1015.5 1015.0 0.0
25/12:00am 16.0 15.4 14.7 92 0.8 ESE 11 13 6 7 1015.7 1015.2 0.0
 
Date/Time
EDT
Temp
°C
App
Temp
°C
Dew
Point
°C
Rel
Hum
%
Delta-T
°C
Wind Press
QNH
hPa
Press
MSL
hPa
Rain since
9am
mm
Dir  Spd
km/h
Gust
km/h
Spd
kts
Gust
kts
24/11:30pm 16.1 14.7 14.6 91 0.9 E 15 17 8 9 1015.9 1015.3 0.0
24/11:00pm 16.1 14.2 14.3 89 1.0 ESE 17 20 9 11 1015.7 1015.2 0.0
24/10:30pm 16.1 14.2 14.3 89 1.0 E 17 20 9 11 1015.5 1015.0 0.0
24/10:00pm 16.3 14.0 14.1 87 1.3 E 19 22 10 12 1015.5 1015.0 0.0
24/09:30pm 16.4 14.1 14.1 86 1.3 E 19 20 10 11 1015.7 1015.2 0.0
24/09:00pm 16.2 14.7 14.2 88 1.1 ESE 15 17 8 9 1016.2 1015.6 0.0
24/08:30pm 16.5 15.4 14.2 86 1.3 SE 13 15 7 8 1016.3 1015.7 0.0
24/08:00pm 16.7 15.2 14.2 85 1.4 SE 15 19 8 10 1016.4 1015.8 0.0
24/07:30pm 17.2 15.0 14.3 83 1.7 SE 19 20 10 11 1016.2 1015.6 0.0
24/07:00pm 17.8 15.3 14.1 79 2.1 ESE 20 24 11 13 1016.2 1015.6 0.0
24/06:30pm 18.7 16.9 14.4 76 2.5 ESE 17 20 9 11 1016.5 1015.9 0.0
24/06:00pm 19.1 16.8 14.1 73 2.9 ESE 19 22 10 12 1016.1 1015.5 0.0
24/05:30pm 19.4 17.2 14.4 73 2.9 SE 19 22 10 12 1016.0 1015.4 0.0
24/05:00pm 19.5 17.2 14.1 71 3.1 SE 19 22 10 12 1016.1 1015.5 0.0
24/04:30pm 20.1 18.7 14.5 70 3.3 ESE 15 20 8 11 1016.4 1015.8 0.0
24/04:00pm 19.9 17.5 13.8 68 3.5 E 19 28 10 15 1016.4 1015.8 0.0
24/03:30pm 19.6 17.3 14.0 70 3.3 ESE 19 24 10 13 1016.8 1016.2 0.0
24/03:00pm 20.1 17.6 14.0 68 3.6 ESE 20 30 11 16 1017.1 1016.5 0.0
24/02:30pm 20.6 17.6 13.8 65 4.0 ESE 22 33 12 18 1017.4 1016.8 0.0
24/02:00pm 19.1 16.0 13.3 69 3.3 ESE 22 32 12 17 1017.9 1017.3 0.0
24/01:30pm 19.6 16.8 14.2 71 3.2 ESE 22 32 12 17 1018.8 1018.2 0.0
24/01:00pm 18.0 13.7 13.3 74 2.7 ESE 28 37 15 20 1018.7 1018.1 0.0
24/12:30pm 19.1 15.5 14.1 73 2.9 E 26 30 14 16 1019.5 1019.0 0.0
24/12:00pm 17.5 13.6 13.2 76 2.4 ESE 26 35 14 19 1019.7 1019.2 0.0
24/11:30am 17.0 12.3 13.3 79 2.1 ESE 30 35 16 19 1020.0 1019.4 0.0
24/11:00am 16.5 12.3 13.4 82 1.8 ESE 28 32 15 17 1020.1 1019.5 0.0
24/10:30am 16.4 12.8 14.1 86 1.3 ESE 26 33 14 18 1020.0 1019.4 0.0
24/10:00am 15.7 11.3 14.2 91 0.9 ESE 30 39 16 21 1020.1 1019.5 0.0
24/09:30am 15.2 11.3 14.4 95 0.5 E 28 35 15 19 1020.2 1019.6 0.0
24/09:00am 14.8 10.9 14.5 98 0.2 ESE 28 35 15 19 1019.7 1019.2 0.0
24/08:30am 14.2 10.5 13.9 98 0.2 ESE 26 30 14 16 1019.6 1019.1 0.0
24/08:00am 13.9 10.9 13.6 98 0.2 ESE 22 26 12 14 1019.6 1019.1 0.0
24/07:30am 13.7 10.6 13.4 98 0.2 ESE 22 28 12 15 1019.4 1018.9 0.0
24/07:00am 13.5 10.9 13.2 98 0.2 E 19 22 10 12 1019.6 1019.1 0.0
24/06:30am 13.1 9.4 12.6 97 0.3 ESE 24 28 13 15 1019.0 1018.5 0.0
24/06:00am 13.1 8.6 12.5 96 0.3 ESE 28 32 15 17 1018.7 1018.1 0.0
24/05:30am 13.0 9.9 12.2 95 0.4 E 20 24 11 13 1019.4 1018.9 0.0
24/05:00am 13.2 8.2 12.3 94 0.5 ESE 30 33 16 18 1018.8 1018.2 0.0
24/04:30am 13.3 8.4 12.4 94 0.5 E 30 35 16 19 1019.0 1018.5 0.0
24/04:00am 13.4 8.5 12.5 94 0.5 ESE 30 33 16 18 1019.3 1018.8 0.0
24/03:30am 13.6 8.4 12.8 95 0.4 ESE 32 35 17 19 1019.4 1018.9 0.0
24/03:00am 13.6 8.4 12.8 95 0.4 ESE 32 35 17 19 1019.9 1019.3 0.0
24/02:30am 13.6 7.8 12.8 95 0.4 ESE 35 41 19 22 1020.0 1019.4 0.0
24/02:00am 13.6 8.2 12.7 94 0.5 ESE 33 39 18 21 1020.5 1019.9 0.0
24/01:30am 13.8 8.7 13.0 95 0.4 ESE 32 37 17 20 1020.6 1020.0 0.0
24/01:00am 13.8 8.7 13.0 95 0.4 ESE 32 37 17 20 1020.6 1020.0 0.0
24/12:30am 14.1 9.4 13.1 94 0.6 ESE 30 35 16 19 1021.0 1020.4 0.0
24/12:00am 14.3 10.0 13.3 94 0.6 ESE 28 33 15 18 1021.3 1020.7 0.0
 
Date/Time
EDT
Temp
°C
App
Temp
°C
Dew
Point
°C
Rel
Hum
%
Delta-T
°C
Wind Press
QNH
hPa
Press
MSL
hPa
Rain since
9am
mm
Dir  Spd
km/h
Gust
km/h
Spd
kts
Gust
kts
23/11:30pm 14.6 10.0 13.6 94 0.6 ESE 30 37 16 20 1021.2 1020.6 0.0
23/11:00pm 14.9 9.8 13.8 93 0.6 ESE 33 43 18 23 1021.5 1020.9 0.0
23/10:30pm 15.2 10.4 14.1 93 0.6 ESE 32 41 17 22 1021.4 1020.8 0.0
23/10:00pm 15.1 10.3 14.1 94 0.6 SE 32 37 17 20 1021.9 1021.3 0.0
23/09:30pm 15.1 10.3 14.0 93 0.6 SE 32 37 17 20 1021.8 1021.2 0.0
23/09:00pm 15.0 10.1 13.7 92 0.7 SE 32 39 17 21 1021.2 1020.6 0.0
23/08:30pm 15.1 9.9 13.5 90 0.9 SE 33 41 18 22 1020.9 1020.3 0.0
23/08:00pm 15.3 9.8 13.5 89 1.0 SE 35 44 19 24 1020.7 1020.1 0.0
23/07:30pm 15.5 9.9 13.2 86 1.3 SE 35 44 19 24 1020.6 1020.0 0.0
23/07:00pm 15.9 9.5 13.2 84 1.5 SE 39 48 21 26 1020.4 1019.8 0.0
23/06:30pm 16.6 9.3 12.9 79 2.1 SE 43 52 23 28 1020.1 1019.5 0.0
23/06:00pm 17.3 10.8 12.8 75 2.5 SE 39 48 21 26 1020.2 1019.6 0.0
23/05:30pm 17.8 10.4 12.9 73 2.8 SE 44 52 24 28 1020.1 1019.5 0.0
23/05:00pm 17.8 11.4 13.1 74 2.7 SE 39 50 21 27 1020.2 1019.6 0.0
23/04:30pm 18.4 11.7 13.3 72 2.9 SE 41 48 22 26 1020.4 1019.8 0.0
23/04:00pm 19.5 12.5 13.7 69 3.4 SE 43 54 23 29 1020.2 1019.6 0.0
23/03:30pm 19.1 12.5 12.6 66 3.7 SE 39 46 21 25 1020.5 1019.9 0.0
23/03:00pm 20.5 13.6 12.7 61 4.4 ESE 41 54 22 29 1020.5 1019.9 0.0
23/02:30pm 19.9 12.6 11.7 59 4.6 SE 41 54 22 29 1020.4 1019.8 0.0
23/02:00pm 19.8 12.8 12.6 63 4.1 SE 41 50 22 27 1020.7 1020.1 0.0
23/01:30pm 19.6 12.2 12.6 64 4.0 SE 43 54 23 29 1021.0 1020.4 0.0
23/01:00pm 19.0 12.2 13.0 68 3.4 SE 41 52 22 28 1021.4 1020.8 0.0
23/12:30pm 18.4 11.6 13.1 71 3.0 SE 41 48 22 26 1021.7 1021.1 0.0

Other Formats:

Comma delimited format used in spreadsheet applications
http://www.bom.gov.au/fwo/IDV60801/IDV60801.95845.axf

JavaScript Object Notation format (JSON) in row-major order
http://www.bom.gov.au/fwo/IDV60801/IDV60801.95845.json